sensor_id;sensor_type;location;lat;lon;timestamp;pressure;altitude;pressure_sealevel;temperature;humidity
14204;BME280;7185;51.854;6.622;2023-02-08T00:01:57;103625.81;;;0.03;94.84
14204;BME280;7185;51.854;6.622;2023-02-08T00:04:30;103630.84;;;0.13;94.66
14204;BME280;7185;51.854;6.622;2023-02-08T00:07:02;103620.88;;;0.06;94.71
14204;BME280;7185;51.854;6.622;2023-02-08T00:09:34;103620.22;;;0.20;95.72
14204;BME280;7185;51.854;6.622;2023-02-08T00:12:05;103623.13;;;0.13;96.04
14204;BME280;7185;51.854;6.622;2023-02-08T00:14:37;103622.34;;;0.26;95.71
14204;BME280;7185;51.854;6.622;2023-02-08T00:17:15;103617.75;;;0.10;95.68
14204;BME280;7185;51.854;6.622;2023-02-08T00:19:47;103624.03;;;0.13;96.15
14204;BME280;7185;51.854;6.622;2023-02-08T00:22:19;103619.41;;;0.09;96.19
14204;BME280;7185;51.854;6.622;2023-02-08T00:24:51;103614.16;;;0.08;97.12
14204;BME280;7185;51.854;6.622;2023-02-08T00:27:22;103611.44;;;0.18;96.95
14204;BME280;7185;51.854;6.622;2023-02-08T00:29:54;103608.09;;;0.19;98.16
14204;BME280;7185;51.854;6.622;2023-02-08T00:32:25;103606.06;;;0.15;97.72
14204;BME280;7185;51.854;6.622;2023-02-08T00:34:58;103603.69;;;0.18;97.68
14204;BME280;7185;51.854;6.622;2023-02-08T00:37:30;103600.69;;;0.12;98.94
14204;BME280;7185;51.854;6.622;2023-02-08T00:40:01;103601.16;;;0.06;100.00
14204;BME280;7185;51.854;6.622;2023-02-08T00:42:35;103601.78;;;0.04;100.00
14204;BME280;7185;51.854;6.622;2023-02-08T00:45:09;103600.44;;;-0.15;100.00
14204;BME280;7185;51.854;6.622;2023-02-08T00:47:41;103601.38;;;-0.14;100.00
14204;BME280;7185;51.854;6.622;2023-02-08T00:50:14;103597.97;;;-0.13;100.00
14204;BME280;7185;51.854;6.622;2023-02-08T00:52:45;103598.88;;;-0.13;100.00
14204;BME280;7185;51.854;6.622;2023-02-08T00:55:17;103606.16;;;-0.19;100.00
14204;BME280;7185;51.854;6.622;2023-02-08T00:57:49;103601.78;;;-0.20;100.00
14204;BME280;7185;51.854;6.622;2023-02-08T01:00:20;103601.78;;;-0.20;100.00
14204;BME280;7185;51.854;6.622;2023-02-08T01:02:52;103601.78;;;-0.20;100.00
14204;BME280;7185;51.854;6.622;2023-02-08T01:05:25;103597.97;;;-0.25;100.00
14204;BME280;7185;51.854;6.622;2023-02-08T01:07:57;103593.03;;;-0.22;100.00
14204;BME280;7185;51.854;6.622;2023-02-08T01:10:28;103593.34;;;-0.29;100.00
14204;BME280;7185;51.854;6.622;2023-02-08T01:13:00;103592.56;;;-0.40;100.00
14204;BME280;7185;51.854;6.622;2023-02-08T01:15:32;103596.81;;;-0.41;100.00
14204;BME280;7185;51.854;6.622;2023-02-08T01:18:04;103587.88;;;-0.46;100.00
14204;BME280;7185;51.854;6.622;2023-02-08T01:20:37;103591.22;;;-0.47;100.00
14204;BME280;7185;51.854;6.622;2023-02-08T01:23:08;103589.31;;;-0.38;100.00
14204;BME280;7185;51.854;6.622;2023-02-08T01:25:40;103591.44;;;-0.44;100.00
14204;BME280;7185;51.854;6.622;2023-02-08T01:28:12;103593.03;;;-0.46;100.00
14204;BME280;7185;51.854;6.622;2023-02-08T01:30:43;103594.56;;;-0.48;100.00
14204;BME280;7185;51.854;6.622;2023-02-08T01:33:15;103598.81;;;-0.60;100.00
14204;BME280;7185;51.854;6.622;2023-02-08T01:35:50;103590.19;;;-0.49;100.00
14204;BME280;7185;51.854;6.622;2023-02-08T01:38:22;103595.91;;;-0.53;100.00
14204;BME280;7185;51.854;6.622;2023-02-08T01:40:56;103601.16;;;-0.52;100.00
14204;BME280;7185;51.854;6.622;2023-02-08T01:43:30;103598.50;;;-0.53;100.00
14204;BME280;7185;51.854;6.622;2023-02-08T01:46:03;103590.75;;;-0.53;100.00
14204;BME280;7185;51.854;6.622;2023-02-08T01:48:37;103590.97;;;-0.50;100.00
14204;BME280;7185;51.854;6.622;2023-02-08T01:51:14;103599.63;;;-0.38;100.00
14204;BME280;7185;51.854;6.622;2023-02-08T01:53:47;103605.34;;;-0.42;100.00
14204;BME280;7185;51.854;6.622;2023-02-08T01:56:24;103595.03;;;-0.42;100.00
14204;BME280;7185;51.854;6.622;2023-02-08T01:58:59;103593.53;;;-0.50;100.00
14204;BME280;7185;51.854;6.622;2023-02-08T02:01:31;103593.66;;;-0.49;100.00
14204;BME280;7185;51.854;6.622;2023-02-08T02:04:04;103595.25;;;-0.51;100.00
14204;BME280;7185;51.854;6.622;2023-02-08T02:06:41;103585.78;;;-0.62;100.00
14204;BME280;7185;51.854;6.622;2023-02-08T02:09:17;103588.25;;;-0.63;100.00
14204;BME280;7185;51.854;6.622;2023-02-08T02:11:52;103589.34;;;-0.72;100.00
14204;BME280;7185;51.854;6.622;2023-02-08T02:14:25;103575.63;;;-0.83;100.00
14204;BME280;7185;51.854;6.622;2023-02-08T02:16:58;103579.03;;;-0.72;100.00
14204;BME280;7185;51.854;6.622;2023-02-08T02:19:36;103581.97;;;-0.67;100.00
14204;BME280;7185;51.854;6.622;2023-02-08T02:25:23;103580.06;;;-0.70;100.00
14204;BME280;7185;51.854;6.622;2023-02-08T02:28:27;103573.41;;;-0.78;100.00
14204;BME280;7185;51.854;6.622;2023-02-08T02:31:24;103571.63;;;-0.79;100.00
14204;BME280;7185;51.854;6.622;2023-02-08T02:34:02;103573.41;;;-0.78;100.00
14204;BME280;7185;51.854;6.622;2023-02-08T02:36:41;103572.28;;;-0.82;100.00
14204;BME280;7185;51.854;6.622;2023-02-08T02:39:24;103568.09;;;-0.91;100.00
14204;BME280;7185;51.854;6.622;2023-02-08T02:42:00;103569.53;;;-0.95;100.00
14204;BME280;7185;51.854;6.622;2023-02-08T02:45:04;103567.44;;;-0.89;100.00
14204;BME280;7185;51.854;6.622;2023-02-08T02:47:44;103572.59;;;-0.89;100.00
14204;BME280;7185;51.854;6.622;2023-02-08T02:50:23;103573.09;;;-1.05;100.00
14204;BME280;7185;51.854;6.622;2023-02-08T02:52:59;103572.19;;;-1.05;100.00
14204;BME280;7185;51.854;6.622;2023-02-08T02:55:35;103576.38;;;-0.95;100.00
14204;BME280;7185;51.854;6.622;2023-02-08T02:58:12;103586.84;;;-1.04;100.00
14204;BME280;7185;51.854;6.622;2023-02-08T03:00:51;103574.44;;;-1.10;100.00
14204;BME280;7185;51.854;6.622;2023-02-08T03:03:26;103572.69;;;-0.87;100.00
14204;BME280;7185;51.854;6.622;2023-02-08T03:06:00;103572.69;;;-0.87;100.00
14204;BME280;7185;51.854;6.622;2023-02-08T03:11:55;103574.13;;;-1.03;100.00
14204;BME280;7185;51.854;6.622;2023-02-08T03:14:33;103578.53;;;-1.12;100.00
14204;BME280;7185;51.854;6.622;2023-02-08T03:17:18;103575.72;;;-1.15;100.00
14204;BME280;7185;51.854;6.622;2023-02-08T03:20:00;103581.72;;;-1.26;100.00
14204;BME280;7185;51.854;6.622;2023-02-08T03:22:43;103585.13;;;-1.16;100.00
14204;BME280;7185;51.854;6.622;2023-02-08T03:25:18;103572.16;;;-1.17;100.00
14204;BME280;7185;51.854;6.622;2023-02-08T03:27:59;103571.13;;;-1.19;100.00
14204;BME280;7185;51.854;6.622;2023-02-08T03:30:37;103566.16;;;-1.06;100.00
14204;BME280;7185;51.854;6.622;2023-02-08T03:33:20;103558.38;;;-0.95;100.00
14204;BME280;7185;51.854;6.622;2023-02-08T03:36:01;103566.88;;;-0.97;100.00
14204;BME280;7185;51.854;6.622;2023-02-08T03:38:37;103567.31;;;-0.90;100.00
14204;BME280;7185;51.854;6.622;2023-02-08T03:41:13;103569.75;;;-1.04;100.00
14204;BME280;7185;51.854;6.622;2023-02-08T03:43:49;103569.69;;;-1.16;100.00
14204;BME280;7185;51.854;6.622;2023-02-08T03:46:25;103570.03;;;-1.11;100.00
14204;BME280;7185;51.854;6.622;2023-02-08T03:49:01;103577.53;;;-1.14;100.00
14204;BME280;7185;51.854;6.622;2023-02-08T03:51:37;103571.03;;;-1.09;100.00
14204;BME280;7185;51.854;6.622;2023-02-08T03:54:11;103575.72;;;-1.15;100.00
14204;BME280;7185;51.854;6.622;2023-02-08T03:56:47;103582.91;;;-1.11;100.00
14204;BME280;7185;51.854;6.622;2023-02-08T03:59:28;103573.75;;;-1.30;100.00
14204;BME280;7185;51.854;6.622;2023-02-08T04:02:03;103579.44;;;-1.34;100.00
14204;BME280;7185;51.854;6.622;2023-02-08T04:04:38;103577.34;;;-1.27;100.00
14204;BME280;7185;51.854;6.622;2023-02-08T04:07:12;103574.84;;;-1.38;100.00
14204;BME280;7185;51.854;6.622;2023-02-08T04:09:44;103575.03;;;-1.24;100.00
14204;BME280;7185;51.854;6.622;2023-02-08T04:12:16;103577.91;;;-1.32;100.00
14204;BME280;7185;51.854;6.622;2023-02-08T04:14:48;103575.63;;;-1.39;100.00
14204;BME280;7185;51.854;6.622;2023-02-08T04:17:20;103578.47;;;-1.46;100.00
14204;BME280;7185;51.854;6.622;2023-02-08T04:19:51;103571.94;;;-1.53;100.00
14204;BME280;7185;51.854;6.622;2023-02-08T04:22:25;103563.69;;;-1.49;100.00
14204;BME280;7185;51.854;6.622;2023-02-08T04:24:56;103571.06;;;-1.53;100.00
14204;BME280;7185;51.854;6.622;2023-02-08T04:27:28;103571.13;;;-1.41;100.00
14204;BME280;7185;51.854;6.622;2023-02-08T04:29:59;103569.06;;;-1.46;100.00
14204;BME280;7185;51.854;6.622;2023-02-08T04:32:31;103580.56;;;-1.52;100.00
14204;BME280;7185;51.854;6.622;2023-02-08T04:35:03;103578.78;;;-1.64;100.00
14204;BME280;7185;51.854;6.622;2023-02-08T04:37:40;103572.66;;;-1.66;100.00
14204;BME280;7185;51.854;6.622;2023-02-08T04:40:11;103580.59;;;-1.63;100.00
14204;BME280;7185;51.854;6.622;2023-02-08T04:42:43;103580.13;;;-1.69;100.00
14204;BME280;7185;51.854;6.622;2023-02-08T04:45:15;103577.28;;;-1.72;100.00
14204;BME280;7185;51.854;6.622;2023-02-08T04:47:46;103576.03;;;-1.77;100.00
14204;BME280;7185;51.854;6.622;2023-02-08T04:50:18;103583.34;;;-1.82;100.00
14204;BME280;7185;51.854;6.622;2023-02-08T04:52:51;103595.84;;;-1.86;100.00
14204;BME280;7185;51.854;6.622;2023-02-08T04:55:23;103593.16;;;-1.88;100.00
14204;BME280;7185;51.854;6.622;2023-02-08T04:57:54;103589.03;;;-1.86;100.00
14204;BME280;7185;51.854;6.622;2023-02-08T05:00:26;103576.28;;;-1.74;100.00
14204;BME280;7185;51.854;6.622;2023-02-08T05:02:57;103586.19;;;-1.79;100.00
14204;BME280;7185;51.854;6.622;2023-02-08T05:05:29;103586.13;;;-1.68;100.00
14204;BME280;7185;51.854;6.622;2023-02-08T05:08:03;103582.69;;;-1.69;100.00
14204;BME280;7185;51.854;6.622;2023-02-08T05:10:35;103577.28;;;-1.72;100.00
14204;BME280;7185;51.854;6.622;2023-02-08T05:13:07;103576.28;;;-1.74;100.00
14204;BME280;7185;51.854;6.622;2023-02-08T05:15:38;103582.13;;;-1.65;100.00
14204;BME280;7185;51.854;6.622;2023-02-08T05:18:10;103577.06;;;-1.75;100.00
14204;BME280;7185;51.854;6.622;2023-02-08T05:20:41;103579.63;;;-1.75;100.00
14204;BME280;7185;51.854;6.622;2023-02-08T05:23:14;103578.31;;;-1.70;100.00
14204;BME280;7185;51.854;6.622;2023-02-08T05:25:46;103577.53;;;-1.69;100.00
14204;BME280;7185;51.854;6.622;2023-02-08T05:28:17;103574.78;;;-1.60;100.00
14204;BME280;7185;51.854;6.622;2023-02-08T05:30:50;103583.63;;;-1.46;100.00
14204;BME280;7185;51.854;6.622;2023-02-08T05:33:22;103576.97;;;-1.54;100.00
14204;BME280;7185;51.854;6.622;2023-02-08T05:35:54;103582.59;;;-1.48;100.00
14204;BME280;7185;51.854;6.622;2023-02-08T05:38:28;103576.00;;;-1.45;100.00
14204;BME280;7185;51.854;6.622;2023-02-08T05:41:00;103578.97;;;-1.40;100.00
14204;BME280;7185;51.854;6.622;2023-02-08T05:43:32;103571.66;;;-1.46;100.00
14204;BME280;7185;51.854;6.622;2023-02-08T05:46:04;103576.41;;;-1.50;100.00
14204;BME280;7185;51.854;6.622;2023-02-08T05:48:40;103581.34;;;-1.53;100.00
14204;BME280;7185;51.854;6.622;2023-02-08T05:51:12;103573.28;;;-1.68;100.00
14204;BME280;7185;51.854;6.622;2023-02-08T05:53:46;103569.81;;;-1.69;100.00
14204;BME280;7185;51.854;6.622;2023-02-08T05:56:18;103569.63;;;-1.82;100.00
14204;BME280;7185;51.854;6.622;2023-02-08T05:58:50;103571.94;;;-1.85;100.00
14204;BME280;7185;51.854;6.622;2023-02-08T06:01:23;103579.25;;;-1.90;100.00
14204;BME280;7185;51.854;6.622;2023-02-08T06:03:57;103573.63;;;-1.96;100.00
14204;BME280;7185;51.854;6.622;2023-02-08T06:06:37;103576.34;;;-1.95;100.00
14204;BME280;7185;51.854;6.622;2023-02-08T06:09:12;103567.81;;;-1.94;100.00
14204;BME280;7185;51.854;6.622;2023-02-08T06:11:44;103573.63;;;-1.96;100.00
14204;BME280;7185;51.854;6.622;2023-02-08T06:14:17;103572.63;;;-1.98;100.00
14204;BME280;7185;51.854;6.622;2023-02-08T06:16:49;103571.19;;;-1.95;100.00
14204;BME280;7185;51.854;6.622;2023-02-08T06:19:24;103568.47;;;-1.96;100.00
14204;BME280;7185;51.854;6.622;2023-02-08T06:21:57;103565.41;;;-1.92;100.00
14204;BME280;7185;51.854;6.622;2023-02-08T06:24:30;103561.63;;;-1.85;100.00
14204;BME280;7185;51.854;6.622;2023-02-08T06:27:02;103570.38;;;-1.83;100.00
14204;BME280;7185;51.854;6.622;2023-02-08T06:29:35;103559.69;;;-1.78;100.00
14204;BME280;7185;51.854;6.622;2023-02-08T06:32:07;103556.34;;;-1.77;100.00
14204;BME280;7185;51.854;6.622;2023-02-08T06:34:39;103557.50;;;-1.73;100.00
14204;BME280;7185;51.854;6.622;2023-02-08T06:37:11;103554.94;;;-1.73;100.00
14204;BME280;7185;51.854;6.622;2023-02-08T06:39:46;103554.38;;;-1.69;100.00
14204;BME280;7185;51.854;6.622;2023-02-08T06:42:18;103553.06;;;-1.64;100.00
14204;BME280;7185;51.854;6.622;2023-02-08T06:44:52;103555.16;;;-1.70;100.00
14204;BME280;7185;51.854;6.622;2023-02-08T06:47:26;103554.78;;;-1.74;100.00
14204;BME280;7185;51.854;6.622;2023-02-08T06:49:58;103558.50;;;-1.71;100.00
14204;BME280;7185;51.854;6.622;2023-02-08T06:52:31;103566.00;;;-1.74;100.00
14204;BME280;7185;51.854;6.622;2023-02-08T06:55:06;103561.91;;;-1.50;100.00
14204;BME280;7185;51.854;6.622;2023-02-08T06:57:46;103555.59;;;-1.53;100.00
14204;BME280;7185;51.854;6.622;2023-02-08T07:00:19;103556.13;;;-1.57;100.00
14204;BME280;7185;51.854;6.622;2023-02-08T07:02:51;103558.75;;;-1.68;100.00
14204;BME280;7185;51.854;6.622;2023-02-08T07:05:23;103564.03;;;-1.44;100.00
14204;BME280;7185;51.854;6.622;2023-02-08T07:07:55;103554.25;;;-1.38;100.00
14204;BME280;7185;51.854;6.622;2023-02-08T07:10:29;103552.19;;;-1.42;100.00
14204;BME280;7185;51.854;6.622;2023-02-08T07:13:02;103554.00;;;-1.41;100.00
14204;BME280;7185;51.854;6.622;2023-02-08T07:15:34;103557.81;;;-1.36;100.00
14204;BME280;7185;51.854;6.622;2023-02-08T07:18:05;103554.72;;;-1.32;100.00
14204;BME280;7185;51.854;6.622;2023-02-08T07:20:37;103559.31;;;-1.27;100.00
14204;BME280;7185;51.854;6.622;2023-02-08T07:23:09;103553.94;;;-1.31;100.00
14204;BME280;7185;51.854;6.622;2023-02-08T07:25:43;103548.16;;;-1.16;100.00
14204;BME280;7185;51.854;6.622;2023-02-08T07:28:17;103546.63;;;-1.14;100.00
14204;BME280;7185;51.854;6.622;2023-02-08T07:30:49;103548.16;;;-1.16;100.00
14204;BME280;7185;51.854;6.622;2023-02-08T07:33:21;103549.31;;;-1.13;100.00
14204;BME280;7185;51.854;6.622;2023-02-08T07:35:53;103559.38;;;-1.16;100.00
14204;BME280;7185;51.854;6.622;2023-02-08T07:38:25;103554.97;;;-1.06;100.00
14204;BME280;7185;51.854;6.622;2023-02-08T07:41:03;103555.38;;;-1.12;100.00
14204;BME280;7185;51.854;6.622;2023-02-08T07:43:36;103545.78;;;-1.03;100.00
14204;BME280;7185;51.854;6.622;2023-02-08T07:46:09;103548.06;;;-0.95;100.00
14204;BME280;7185;51.854;6.622;2023-02-08T07:48:42;103551.47;;;-0.73;100.00
14204;BME280;7185;51.854;6.622;2023-02-08T07:51:16;103549.84;;;-0.60;97.11
14204;BME280;7185;51.854;6.622;2023-02-08T07:53:49;103539.22;;;-0.29;96.42
14204;BME280;7185;51.854;6.622;2023-02-08T07:56:23;103533.13;;;0.29;92.95
14204;BME280;7185;51.854;6.622;2023-02-08T07:58:55;103525.66;;;1.61;96.47
14204;BME280;7185;51.854;6.622;2023-02-08T08:01:27;103533.53;;;2.86;83.65
14204;BME280;7185;51.854;6.622;2023-02-08T08:04:00;103524.50;;;4.30;75.85
14204;BME280;7185;51.854;6.622;2023-02-08T08:06:32;103517.31;;;5.42;68.41
14204;BME280;7185;51.854;6.622;2023-02-08T08:09:04;103515.03;;;5.66;60.88
14204;BME280;7185;51.854;6.622;2023-02-08T08:11:38;103514.69;;;5.24;55.52
14204;BME280;7185;51.854;6.622;2023-02-08T08:14:23;103514.41;;;5.54;54.21
14204;BME280;7185;51.854;6.622;2023-02-08T08:16:55;103512.88;;;6.12;53.49
14204;BME280;7185;51.854;6.622;2023-02-08T08:19:27;103502.09;;;6.81;52.20
14204;BME280;7185;51.854;6.622;2023-02-08T08:21:58;103502.81;;;7.39;49.43
14204;BME280;7185;51.854;6.622;2023-02-08T08:24:30;103495.25;;;8.11;47.82
14204;BME280;7185;51.854;6.622;2023-02-08T08:27:06;103505.50;;;8.75;45.58
14204;BME280;7185;51.854;6.622;2023-02-08T08:29:42;103509.75;;;8.97;43.18
14204;BME280;7185;51.854;6.622;2023-02-08T08:32:14;103508.16;;;9.52;42.39
14204;BME280;7185;51.854;6.622;2023-02-08T08:34:46;103499.59;;;10.14;41.99
14204;BME280;7185;51.854;6.622;2023-02-08T08:37:17;103510.16;;;10.77;39.92
14204;BME280;7185;51.854;6.622;2023-02-08T08:39:49;103503.44;;;10.87;38.43
14204;BME280;7185;51.854;6.622;2023-02-08T08:42:23;103510.72;;;10.66;37.89
14204;BME280;7185;51.854;6.622;2023-02-08T08:44:56;103499.22;;;11.27;38.24
14204;BME280;7185;51.854;6.622;2023-02-08T08:47:27;103506.63;;;10.76;37.08
14204;BME280;7185;51.854;6.622;2023-02-08T08:50:00;103501.44;;;11.11;38.23
14204;BME280;7185;51.854;6.622;2023-02-08T08:52:32;103510.06;;;10.14;37.45
14204;BME280;7185;51.854;6.622;2023-02-08T08:55:04;103504.22;;;10.52;38.14
14204;BME280;7185;51.854;6.622;2023-02-08T08:57:38;103502.63;;;10.57;38.28
14204;BME280;7185;51.854;6.622;2023-02-08T09:00:13;103506.09;;;10.88;37.04
14204;BME280;7185;51.854;6.622;2023-02-08T09:02:46;103506.63;;;10.44;35.77
14204;BME280;7185;51.854;6.622;2023-02-08T09:05:19;103493.31;;;11.72;36.11
14204;BME280;7185;51.854;6.622;2023-02-08T09:07:51;103494.34;;;11.42;35.45
14204;BME280;7185;51.854;6.622;2023-02-08T09:10:23;103497.41;;;11.61;35.14
14204;BME280;7185;51.854;6.622;2023-02-08T09:12:58;103497.69;;;12.08;34.32
14204;BME280;7185;51.854;6.622;2023-02-08T09:15:30;103501.44;;;12.21;34.18
14204;BME280;7185;51.854;6.622;2023-02-08T09:18:03;103510.84;;;12.53;33.75
14204;BME280;7185;51.854;6.622;2023-02-08T09:20:37;103511.44;;;11.98;33.75
14204;BME280;7185;51.854;6.622;2023-02-08T09:23:10;103506.81;;;12.27;33.88
14204;BME280;7185;51.854;6.622;2023-02-08T09:25:47;103525.00;;;11.08;33.49
14204;BME280;7185;51.854;6.622;2023-02-08T09:28:20;103523.22;;;11.77;32.78
14204;BME280;7185;51.854;6.622;2023-02-08T09:30:53;103519.28;;;11.60;33.38
14204;BME280;7185;51.854;6.622;2023-02-08T09:33:25;103529.59;;;11.51;33.17
14204;BME280;7185;51.854;6.622;2023-02-08T09:36:11;103532.22;;;11.17;33.79
14204;BME280;7185;51.854;6.622;2023-02-08T09:38:44;103529.69;;;11.20;32.88
14204;BME280;7185;51.854;6.622;2023-02-08T09:41:37;103526.66;;;11.38;33.52
14204;BME280;7185;51.854;6.622;2023-02-08T09:44:22;103523.50;;;11.53;33.84
14204;BME280;7185;51.854;6.622;2023-02-08T09:46:58;103526.63;;;10.71;33.42
14204;BME280;7185;51.854;6.622;2023-02-08T09:49:35;103526.22;;;10.88;34.26
14204;BME280;7185;51.854;6.622;2023-02-08T09:52:18;103531.38;;;10.54;34.06
14204;BME280;7185;51.854;6.622;2023-02-08T09:55:18;103531.47;;;9.72;34.75
14204;BME280;7185;51.854;6.622;2023-02-08T09:57:58;103532.84;;;9.35;36.73
14204;BME280;7185;51.854;6.622;2023-02-08T10:00:40;103522.06;;;10.06;35.47
14204;BME280;7185;51.854;6.622;2023-02-08T10:03:32;103523.72;;;10.33;34.08
14204;BME280;7185;51.854;6.622;2023-02-08T10:06:08;103525.66;;;10.37;33.64
14204;BME280;7185;51.854;6.622;2023-02-08T10:08:50;103523.72;;;10.62;32.52
14204;BME280;7185;51.854;6.622;2023-02-08T10:11:38;103536.94;;;11.30;30.84
14204;BME280;7185;51.854;6.622;2023-02-08T10:14:33;103530.88;;;11.33;33.95
14204;BME280;7185;51.854;6.622;2023-02-08T10:17:28;103522.88;;;12.84;31.11
14204;BME280;7185;51.854;6.622;2023-02-08T10:20:18;103523.53;;;13.70;30.44
14204;BME280;7185;51.854;6.622;2023-02-08T10:23:07;103526.34;;;13.83;27.81
14204;BME280;7185;51.854;6.622;2023-02-08T10:25:59;103523.22;;;13.53;28.95
14204;BME280;7185;51.854;6.622;2023-02-08T10:32:35;103532.75;;;14.00;27.97
14204;BME280;7185;51.854;6.622;2023-02-08T10:35:36;103525.00;;;14.82;28.49
14204;BME280;7185;51.854;6.622;2023-02-08T10:41:00;103528.91;;;15.20;26.86
14204;BME280;7185;51.854;6.622;2023-02-08T10:43:37;103524.78;;;14.65;27.14
14204;BME280;7185;51.854;6.622;2023-02-08T10:46:15;103516.06;;;15.68;25.72
14204;BME280;7185;51.854;6.622;2023-02-08T10:49:01;103521.53;;;14.86;26.58
14204;BME280;7185;51.854;6.622;2023-02-08T10:51:34;103508.19;;;15.74;26.31
14204;BME280;7185;51.854;6.622;2023-02-08T10:54:10;103514.97;;;15.41;24.92
14204;BME280;7185;51.854;6.622;2023-02-08T10:56:45;103514.41;;;15.82;23.42
14204;BME280;7185;51.854;6.622;2023-02-08T10:59:20;103504.63;;;15.72;26.48
14204;BME280;7185;51.854;6.622;2023-02-08T11:01:53;103506.06;;;15.31;23.48
14204;BME280;7185;51.854;6.622;2023-02-08T11:04:27;103506.63;;;14.94;23.69
14204;BME280;7185;51.854;6.622;2023-02-08T11:07:18;103499.63;;;15.00;25.03
14204;BME280;7185;51.854;6.622;2023-02-08T11:09:50;103494.97;;;14.72;24.24
14204;BME280;7185;51.854;6.622;2023-02-08T11:12:22;103485.25;;;15.73;23.51
14204;BME280;7185;51.854;6.622;2023-02-08T11:14:53;103480.81;;;15.73;22.91
14204;BME280;7185;51.854;6.622;2023-02-08T11:17:28;103478.84;;;15.41;22.26
14204;BME280;7185;51.854;6.622;2023-02-08T11:20:04;103480.59;;;15.41;22.13
14204;BME280;7185;51.854;6.622;2023-02-08T11:22:35;103480.31;;;16.47;21.79
14204;BME280;7185;51.854;6.622;2023-02-08T11:25:29;103483.09;;;17.25;23.23
14204;BME280;7185;51.854;6.622;2023-02-08T11:28:01;103481.28;;;16.86;20.21
14204;BME280;7185;51.854;6.622;2023-02-08T11:30:33;103474.28;;;17.35;22.54
14204;BME280;7185;51.854;6.622;2023-02-08T11:33:24;103474.19;;;17.66;20.65
14204;BME280;7185;51.854;6.622;2023-02-08T11:36:02;103481.63;;;18.99;19.43
14204;BME280;7185;51.854;6.622;2023-02-08T11:38:35;103476.84;;;19.37;20.79
14204;BME280;7185;51.854;6.622;2023-02-08T11:41:14;103463.34;;;20.32;21.31
14204;BME280;7185;51.854;6.622;2023-02-08T11:44:00;103464.81;;;19.86;17.87
14204;BME280;7185;51.854;6.622;2023-02-08T11:46:33;103459.72;;;20.37;18.56
14204;BME280;7185;51.854;6.622;2023-02-08T11:49:19;103454.84;;;20.05;18.45
14204;BME280;7185;51.854;6.622;2023-02-08T11:51:53;103455.38;;;19.55;18.75
14204;BME280;7185;51.854;6.622;2023-02-08T11:54:34;103449.59;;;19.11;19.15
14204;BME280;7185;51.854;6.622;2023-02-08T11:57:13;103449.81;;;18.80;18.70
14204;BME280;7185;51.854;6.622;2023-02-08T11:59:45;103442.81;;;19.68;19.96
14204;BME280;7185;51.854;6.622;2023-02-08T12:02:30;103437.91;;;20.75;18.62
14204;BME280;7185;51.854;6.622;2023-02-08T12:05:09;103439.91;;;20.57;16.73
14204;BME280;7185;51.854;6.622;2023-02-08T12:07:50;103432.06;;;19.76;17.62
14204;BME280;7185;51.854;6.622;2023-02-08T12:10:45;103425.16;;;21.41;17.58
14204;BME280;7185;51.854;6.622;2023-02-08T12:16:48;103416.22;;;20.95;17.52
14204;BME280;7185;51.854;6.622;2023-02-08T12:22:32;103413.63;;;22.66;17.15
14204;BME280;7185;51.854;6.622;2023-02-08T12:25:24;103403.06;;;23.62;16.06
14204;BME280;7185;51.854;6.622;2023-02-08T12:28:06;103404.78;;;23.33;15.61
14204;BME280;7185;51.854;6.622;2023-02-08T12:30:44;103403.72;;;23.70;15.65
14204;BME280;7185;51.854;6.622;2023-02-08T12:33:32;103396.38;;;23.77;16.05
14204;BME280;7185;51.854;6.622;2023-02-08T12:36:19;103403.91;;;22.98;14.67
14204;BME280;7185;51.854;6.622;2023-02-08T12:39:11;103387.06;;;23.60;14.47
14204;BME280;7185;51.854;6.622;2023-02-08T12:42:23;103375.81;;;24.91;15.21
14204;BME280;7185;51.854;6.622;2023-02-08T12:45:27;103375.63;;;24.42;14.24
14204;BME280;7185;51.854;6.622;2023-02-08T12:48:16;103373.00;;;25.44;14.02
14204;BME280;7185;51.854;6.622;2023-02-08T12:50:56;103369.13;;;24.22;13.53
14204;BME280;7185;51.854;6.622;2023-02-08T12:53:32;103364.69;;;23.30;14.44
14204;BME280;7185;51.854;6.622;2023-02-08T12:56:09;103360.56;;;22.83;14.59
14204;BME280;7185;51.854;6.622;2023-02-08T12:58:46;103350.91;;;24.05;14.62
14204;BME280;7185;51.854;6.622;2023-02-08T13:01:20;103355.41;;;24.03;14.88
14204;BME280;7185;51.854;6.622;2023-02-08T13:03:56;103346.69;;;22.69;16.04
14204;BME280;7185;51.854;6.622;2023-02-08T13:06:36;103335.25;;;23.90;14.82
14204;BME280;7185;51.854;6.622;2023-02-08T13:09:14;103336.25;;;23.26;15.73
14204;BME280;7185;51.854;6.622;2023-02-08T13:11:51;103342.91;;;21.61;14.53
14204;BME280;7185;51.854;6.622;2023-02-08T13:14:31;103338.34;;;21.24;16.13
14204;BME280;7185;51.854;6.622;2023-02-08T13:17:11;103336.47;;;22.12;15.28
14204;BME280;7185;51.854;6.622;2023-02-08T13:19:50;103327.69;;;20.18;15.84
14204;BME280;7185;51.854;6.622;2023-02-08T13:22:23;103321.41;;;20.22;15.02
14204;BME280;7185;51.854;6.622;2023-02-08T13:24:55;103321.81;;;19.94;15.69
14204;BME280;7185;51.854;6.622;2023-02-08T13:27:27;103314.94;;;20.90;15.78
14204;BME280;7185;51.854;6.622;2023-02-08T13:30:01;103315.69;;;21.44;15.63
14204;BME280;7185;51.854;6.622;2023-02-08T13:32:35;103305.66;;;21.55;16.02
14204;BME280;7185;51.854;6.622;2023-02-08T13:35:14;103291.75;;;22.90;15.32
14204;BME280;7185;51.854;6.622;2023-02-08T13:37:49;103297.91;;;22.92;14.04
14204;BME280;7185;51.854;6.622;2023-02-08T13:40:30;103299.19;;;24.01;15.25
14204;BME280;7185;51.854;6.622;2023-02-08T13:43:04;103298.88;;;24.11;14.85
14204;BME280;7185;51.854;6.622;2023-02-08T13:45:41;103280.78;;;24.44;13.97
14204;BME280;7185;51.854;6.622;2023-02-08T13:48:14;103285.53;;;24.36;15.01
14204;BME280;7185;51.854;6.622;2023-02-08T13:50:48;103281.44;;;24.78;13.73
14204;BME280;7185;51.854;6.622;2023-02-08T13:56:37;103265.97;;;24.34;13.96
14204;BME280;7185;51.854;6.622;2023-02-08T13:59:33;103274.47;;;23.63;15.20
14204;BME280;7185;51.854;6.622;2023-02-08T14:02:19;103263.69;;;23.65;14.11
14204;BME280;7185;51.854;6.622;2023-02-08T14:04:54;103260.03;;;25.00;15.59